North Judson, Indiana
Current Conditions -  °F | °C
As of 4:55 AM on Monday 20 Oct 2014 (Local Time) from KOXI Reporting Station
Overcast Overcast  
Wind Chill: 46°   Ceiling: 6000
Heat Index: 50°   Visibility: 10mi
Dew Point: 43°   Wind: 9mph
Humidity: 76%   Direction: 220°SW
Pressure: 29.86"   Gusts: NA
Location:  41.22°N, 86.78°W
Report Text: KOXI 200955Z AUTO 22008KT 10SM OVC060 10/06 A2986 RMK AO1 T00990059
Loading
Personal Weather Stations






























Interactive Weather Map
Tropical Storm Tracking
New forecast layout! Learn more

10-Day Weather Forecast

Advertisements
Track Severe Weather on mobile